DTTF/GAF METAR and TAF weather

Enter ICAO airport designator
Station Type Date Time Source
DTTF METAR 2018/10/21 06:00 UTC NOAA

DTTF 210600Z 02009KT 9999 SCT026 17/15 Q1019


Station Type Date Time Source
DTTF Decoded METAR 2018/10/21 06:00 UTC NOAA

Gafsa, Tunisia (DTTF) 34-25N 008-49E 314M
Oct 21, 2018 - 02:00 AM EDT / 2018.10.21 0600 UTC
Wind: from the NNE (020 degrees) at 10 MPH (9 KT):0
Visibility: greater than 7 mile(s):0
Sky conditions: partly cloudy
Temperature: 62 F (17 C)
Dew Point: 59 F (15 C)
Relative Humidity: 88%
Pressure (altimeter): 30.09 in. Hg (1019 hPa)
ob: DTTF 210600Z 02009KT 9999 SCT026 17/15 Q1019
cycle: 6

Station Type Date Time Source
DTTF TAF 2018/07/22 13:33 UTC NOAA

TAF DTTF 221200Z 2213/2322 22010KT 7000 NSC PROB30
TEMPO 2216/2220 4000 -TSRA FEW026CB


Example: see airport list